Time;durP1;ratioP1;P1;durP2;ratioP2;P2;SDS_P1;SDS_P2;PMS_P1;PMS_P2;Temp;Humidity;BMP_temperature;BMP_pressure;BME280_temperature;BME280_humidity;BME280_pressure;Samples;Min_cycle;Max_cycle;Signal;HPM_P1;HPM_P2
2022/12/01 00:01:37;;;;;;;8.23;2.35;;;;;;;;;;5073429;28;20432;-76
2022/12/01 00:04:03;;;;;;;3.90;2.35;;;;;;;;;;5071794;28;20029;-79
2022/12/01 00:06:29;;;;;;;5.05;2.25;;;;;;;;;;5045699;28;20494;-78
2022/12/01 00:11:41;;;;;;;4.10;2.20;;;;;;;;;;5070705;28;20170;-76
2022/12/01 00:14:07;;;;;;;2.83;2.40;;;;;;;;;;5069372;28;20020;-78
2022/12/01 00:16:33;;;;;;;9.13;2.25;;;;;;;;;;5070946;28;20056;-77
2022/12/01 00:19:00;;;;;;;4.55;2.20;;;;;;;;;;5078450;28;20016;-77
2022/12/01 00:21:26;;;;;;;6.30;2.65;;;;;;;;;;5067779;28;20085;-78
2022/12/01 00:23:53;;;;;;;5.97;2.42;;;;;;;;;;5071217;28;20419;-77
2022/12/01 00:26:20;;;;;;;5.45;2.38;;;;;;;;;;5069710;28;20024;-77
2022/12/01 00:28:50;;;;;;;4.13;2.38;;;;;;;;;;5074581;28;20032;-77
2022/12/01 00:31:16;;;;;;;4.28;2.20;;;;;;;;;;5072681;28;20023;-79
2022/12/01 00:33:42;;;;;;;5.00;2.38;;;;;;;;;;5078169;28;20029;-79
2022/12/01 00:36:08;;;;;;;4.15;2.78;;;;;;;;;;5072886;28;20117;-75
2022/12/01 00:38:35;;;;;;;4.72;2.42;;;;;;;;;;5075483;28;20031;-78
2022/12/01 00:41:02;;;;;;;6.15;3.45;;;;;;;;;;5072923;28;20474;-77
2022/12/01 00:43:28;;;;;;;4.97;2.30;;;;;;;;;;5075997;28;20395;-77
2022/12/01 00:45:55;;;;;;;3.50;2.25;;;;;;;;;;5078764;28;20474;-77
2022/12/01 00:48:21;;;;;;;3.40;2.40;;;;;;;;;;5072188;28;20043;-78
2022/12/01 00:50:49;;;;;;;4.35;2.40;;;;;;;;;;5079360;28;20051;-77
2022/12/01 00:53:15;;;;;;;4.53;2.30;;;;;;;;;;5074378;28;20025;-77
2022/12/01 00:55:41;;;;;;;5.10;2.42;;;;;;;;;;5074443;28;20029;-77
2022/12/01 00:58:07;;;;;;;4.30;2.45;;;;;;;;;;5079715;28;20107;-77
2022/12/01 01:00:37;;;;;;;4.05;2.13;;;;;;;;;;5073155;28;20477;-79
2022/12/01 01:03:04;;;;;;;3.47;2.17;;;;;;;;;;5082573;28;20074;-79
2022/12/01 01:05:30;;;;;;;5.53;2.22;;;;;;;;;;5073558;28;20020;-78
2022/12/01 01:07:56;;;;;;;7.00;2.38;;;;;;;;;;5078688;28;20032;-79
2022/12/01 01:10:22;;;;;;;7.13;3.55;;;;;;;;;;5051760;28;20025;-79
2022/12/01 01:12:48;;;;;;;3.65;2.38;;;;;;;;;;5071821;28;20028;-79
2022/12/01 01:15:14;;;;;;;4.03;2.35;;;;;;;;;;5072576;28;20020;-79
2022/12/01 01:17:40;;;;;;;4.63;2.25;;;;;;;;;;5067093;28;20064;-76
2022/12/01 01:20:07;;;;;;;2.60;2.15;;;;;;;;;;5064994;28;20032;-78
2022/12/01 01:22:34;;;;;;;4.40;2.38;;;;;;;;;;5073379;28;20032;-76
2022/12/01 01:25:00;;;;;;;4.63;2.20;;;;;;;;;;5073139;28;20017;-78
2022/12/01 01:27:26;;;;;;;5.45;3.13;;;;;;;;;;5073184;28;20052;-79
2022/12/01 01:29:52;;;;;;;5.22;2.42;;;;;;;;;;5071503;28;20024;-79
2022/12/01 01:32:18;;;;;;;5.45;2.45;;;;;;;;;;5070922;28;20028;-79
2022/12/01 01:34:44;;;;;;;4.28;2.58;;;;;;;;;;5071990;28;20454;-79
2022/12/01 01:37:11;;;;;;;4.68;2.67;;;;;;;;;;5076167;28;20052;-79
2022/12/01 01:39:37;;;;;;;5.00;2.60;;;;;;;;;;5079359;28;20028;-79
2022/12/01 01:42:03;;;;;;;5.72;2.20;;;;;;;;;;5071641;28;20123;-77
2022/12/01 01:44:51;;;;;;;3.63;2.38;;;;;;;;;;5076351;28;20498;-79
2022/12/01 01:47:20;;;;;;;4.32;3.38;;;;;;;;;;5082899;28;20073;-79
2022/12/01 01:49:46;;;;;;;4.07;2.40;;;;;;;;;;5070612;28;20035;-80
2022/12/01 01:52:13;;;;;;;4.90;2.50;;;;;;;;;;5054212;28;20024;-79
2022/12/01 01:54:40;;;;;;;3.85;2.33;;;;;;;;;;5067238;28;20093;-78
2022/12/01 01:57:08;;;;;;;4.43;2.40;;;;;;;;;;5057644;28;20440;-78
2022/12/01 01:59:37;;;;;;;7.03;2.60;;;;;;;;;;5071987;28;20020;-80
2022/12/01 02:02:07;;;;;;;6.95;3.47;;;;;;;;;;5072634;28;20028;-79
2022/12/01 02:04:39;;;;;;;5.68;2.40;;;;;;;;;;5071443;28;20032;-79
2022/12/01 02:07:05;;;;;;;4.30;2.38;;;;;;;;;;5074707;28;20016;-79
2022/12/01 02:09:31;;;;;;;4.90;2.20;;;;;;;;;;5071897;28;20098;-76
2022/12/01 02:12:04;;;;;;;5.45;2.50;;;;;;;;;;5081266;28;20024;-80
2022/12/01 02:14:30;;;;;;;4.13;2.83;;;;;;;;;;5078854;28;20504;-78
2022/12/01 02:17:09;;;;;;;5.22;2.50;;;;;;;;;;5070737;28;20056;-78
2022/12/01 02:19:54;;;;;;;6.53;2.40;;;;;;;;;;5076110;28;20033;-78
2022/12/01 02:22:29;;;;;;;5.78;2.25;;;;;;;;;;5069546;28;20505;-79
2022/12/01 02:25:01;;;;;;;4.65;2.75;;;;;;;;;;5070182;28;20055;-78
2022/12/01 02:27:28;;;;;;;6.95;2.78;;;;;;;;;;5070603;28;20437;-79
2022/12/01 02:30:12;;;;;;;6.88;2.40;;;;;;;;;;5072416;28;20021;-79
2022/12/01 02:32:57;;;;;;;5.50;2.30;;;;;;;;;;5074420;28;20056;-78
2022/12/01 02:35:29;;;;;;;5.28;2.28;;;;;;;;;;5070482;28;20078;-78
2022/12/01 02:38:11;;;;;;;6.35;2.38;;;;;;;;;;5072935;28;20099;-78
2022/12/01 02:40:42;;;;;;;4.20;2.42;;;;;;;;;;5069668;28;20020;-79
2022/12/01 02:43:23;;;;;;;4.80;2.53;;;;;;;;;;5075287;28;20249;-78
2022/12/01 02:45:53;;;;;;;3.78;2.10;;;;;;;;;;5077391;28;20031;-78
2022/12/01 02:48:25;;;;;;;2.60;2.03;;;;;;;;;;5079169;28;20063;-78
2022/12/01 02:50:52;;;;;;;3.30;2.63;;;;;;;;;;5055262;28;20393;-78
2022/12/01 02:53:19;;;;;;;2.50;2.30;;;;;;;;;;5077501;28;20094;-78
2022/12/01 02:55:49;;;;;;;2.47;2.10;;;;;;;;;;5072864;28;20478;-78
2022/12/01 02:58:15;;;;;;;4.60;2.28;;;;;;;;;;5075040;28;20110;-78
2022/12/01 03:01:04;;;;;;;5.72;2.08;;;;;;;;;;5060613;28;20497;-78
2022/12/01 03:03:51;;;;;;;5.68;2.30;;;;;;;;;;5070416;28;20186;-77
2022/12/01 03:06:28;;;;;;;5.03;2.17;;;;;;;;;;5069413;28;20043;-77
2022/12/01 03:09:04;;;;;;;7.93;2.38;;;;;;;;;;5067367;28;20478;-77
2022/12/01 03:11:55;;;;;;;3.92;2.40;;;;;;;;;;5056688;28;20029;-78
2022/12/01 03:14:32;;;;;;;5.05;2.53;;;;;;;;;;5061108;28;20037;-78
2022/12/01 03:17:03;;;;;;;5.38;2.38;;;;;;;;;;5067232;28;20040;-78
2022/12/01 03:19:29;;;;;;;12.30;2.67;;;;;;;;;;5065088;28;20432;-77
2022/12/01 03:22:03;;;;;;;4.03;2.55;;;;;;;;;;5074129;28;20042;-78
2022/12/01 03:24:31;;;;;;;5.97;2.22;;;;;;;;;;5067948;28;20118;-79
2022/12/01 03:26:59;;;;;;;4.65;2.38;;;;;;;;;;5067510;28;20028;-78
2022/12/01 03:29:27;;;;;;;6.85;2.33;;;;;;;;;;5070687;28;20024;-77
2022/12/01 03:31:55;;;;;;;5.10;2.63;;;;;;;;;;5066911;28;20077;-79
2022/12/01 03:34:25;;;;;;;4.82;2.67;;;;;;;;;;5071606;28;20462;-79
2022/12/01 03:36:56;;;;;;;3.80;1.92;;;;;;;;;;5070426;28;20032;-78
2022/12/01 03:39:23;;;;;;;3.35;2.05;;;;;;;;;;5067856;28;20020;-79
2022/12/01 03:41:55;;;;;;;6.10;2.42;;;;;;;;;;5065921;28;20033;-78
2022/12/01 03:44:24;;;;;;;3.55;2.10;;;;;;;;;;5071917;28;20815;-78
2022/12/01 03:46:53;;;;;;;3.38;2.30;;;;;;;;;;5049643;28;20052;-79
2022/12/01 03:49:22;;;;;;;9.30;2.95;;;;;;;;;;5064866;28;20044;-79
2022/12/01 03:51:54;;;;;;;7.20;2.25;;;;;;;;;;5071702;28;20027;-78
2022/12/01 03:54:39;;;;;;;4.93;3.03;;;;;;;;;;5070450;28;20084;-78
2022/12/01 03:57:09;;;;;;;2.03;1.83;;;;;;;;;;5070812;28;20028;-78
2022/12/01 03:59:36;;;;;;;4.13;2.10;;;;;;;;;;5073277;28;20286;-79
2022/12/01 04:02:02;;;;;;;5.55;1.92;;;;;;;;;;5072648;28;20090;-79
2022/12/01 04:04:28;;;;;;;3.58;2.15;;;;;;;;;;5068382;28;20028;-79
2022/12/01 04:06:54;;;;;;;5.28;2.25;;;;;;;;;;5070429;28;20383;-78
2022/12/01 04:09:20;;;;;;;7.20;2.95;;;;;;;;;;5082249;28;20016;-78
2022/12/01 04:14:31;;;;;;;14.93;2.35;;;;;;;;;;5067611;28;20024;-78
2022/12/01 04:16:57;;;;;;;4.60;2.10;;;;;;;;;;5079949;28;20041;-78
2022/12/01 04:19:23;;;;;;;7.03;2.03;;;;;;;;;;5080080;28;20020;-78
2022/12/01 04:21:49;;;;;;;4.15;2.35;;;;;;;;;;5076346;28;20056;-78
2022/12/01 04:24:15;;;;;;;5.68;2.47;;;;;;;;;;5081348;28;20025;-77
2022/12/01 04:26:42;;;;;;;6.15;2.10;;;;;;;;;;5068815;28;20035;-77
2022/12/01 04:29:09;;;;;;;5.60;2.17;;;;;;;;;;5071991;28;20032;-78
2022/12/01 04:31:35;;;;;;;2.28;1.88;;;;;;;;;;5067185;28;20016;-79
2022/12/01 04:34:01;;;;;;;4.45;2.38;;;;;;;;;;5081546;28;20038;-79
2022/12/01 04:36:30;;;;;;;6.07;2.50;;;;;;;;;;5071814;28;20033;-78
2022/12/01 04:38:56;;;;;;;5.22;2.30;;;;;;;;;;5071935;28;20062;-78
2022/12/01 04:41:22;;;;;;;3.78;2.00;;;;;;;;;;5069861;28;20386;-77
2022/12/01 04:43:48;;;;;;;2.55;2.00;;;;;;;;;;5075333;28;20030;-78
2022/12/01 04:46:14;;;;;;;4.30;2.58;;;;;;;;;;5074729;28;20081;-78
2022/12/01 04:48:40;;;;;;;8.00;2.60;;;;;;;;;;5077913;28;20428;-78
2022/12/01 04:51:07;;;;;;;4.03;2.10;;;;;;;;;;5069437;28;20097;-78
2022/12/01 04:53:33;;;;;;;4.88;2.63;;;;;;;;;;5071028;28;20090;-78
2022/12/01 04:56:00;;;;;;;4.30;2.20;;;;;;;;;;5068570;28;20029;-79
2022/12/01 04:58:30;;;;;;;2.65;2.45;;;;;;;;;;5069831;28;20067;-77
2022/12/01 05:01:01;;;;;;;6.53;2.25;;;;;;;;;;5073973;28;20025;-77
2022/12/01 05:03:27;;;;;;;6.55;2.33;;;;;;;;;;5053074;28;20397;-79
2022/12/01 05:06:03;;;;;;;7.72;2.60;;;;;;;;;;5056613;28;20024;-77
2022/12/01 05:08:29;;;;;;;5.25;2.53;;;;;;;;;;5069896;28;20035;-77
2022/12/01 05:10:56;;;;;;;4.40;2.53;;;;;;;;;;5069515;28;20084;-78
2022/12/01 05:13:22;;;;;;;5.68;3.35;;;;;;;;;;5064594;28;20526;-78
2022/12/01 05:15:48;;;;;;;4.18;2.10;;;;;;;;;;5077059;28;20031;-77
2022/12/01 05:18:14;;;;;;;2.88;2.10;;;;;;;;;;5080147;28;20044;-78
2022/12/01 05:20:55;;;;;;;3.85;2.60;;;;;;;;;;5041700;28;20185;-78
2022/12/01 05:23:21;;;;;;;4.43;1.95;;;;;;;;;;5069254;28;20024;-78
2022/12/01 05:25:48;;;;;;;4.18;2.30;;;;;;;;;;5067082;28;20032;-79
2022/12/01 05:28:14;;;;;;;3.97;2.53;;;;;;;;;;5070378;28;20020;-77
2022/12/01 05:30:40;;;;;;;3.30;2.10;;;;;;;;;;5077380;28;20112;-78
2022/12/01 05:33:06;;;;;;;4.38;2.25;;;;;;;;;;5086597;28;20024;-78
2022/12/01 05:35:33;;;;;;;2.78;2.40;;;;;;;;;;5083546;28;20036;-77
2022/12/01 05:37:59;;;;;;;7.35;3.00;;;;;;;;;;5073652;28;20024;-78
2022/12/01 05:40:25;;;;;;;2.50;2.00;;;;;;;;;;5078454;28;20020;-78
2022/12/01 05:42:51;;;;;;;5.35;2.30;;;;;;;;;;5070509;28;20078;-79
2022/12/01 05:45:17;;;;;;;8.40;2.70;;;;;;;;;;5064372;28;20107;-79
2022/12/01 05:47:43;;;;;;;3.45;2.20;;;;;;;;;;5062381;28;20016;-78
2022/12/01 05:50:09;;;;;;;6.72;2.35;;;;;;;;;;5071367;28;20107;-78
2022/12/01 05:52:36;;;;;;;2.15;1.88;;;;;;;;;;5078572;28;20025;-78
2022/12/01 05:55:03;;;;;;;3.25;2.08;;;;;;;;;;5075827;28;20498;-78
2022/12/01 05:57:29;;;;;;;4.93;2.78;;;;;;;;;;5071713;28;20036;-79
2022/12/01 05:59:55;;;;;;;5.93;2.50;;;;;;;;;;5072423;28;20047;-79
2022/12/01 06:02:22;;;;;;;6.93;2.50;;;;;;;;;;5068232;28;20020;-79
2022/12/01 06:04:48;;;;;;;9.32;2.35;;;;;;;;;;5077288;28;20016;-78
2022/12/01 06:07:14;;;;;;;3.53;2.20;;;;;;;;;;5071301;28;20029;-78
2022/12/01 06:09:40;;;;;;;5.28;3.08;;;;;;;;;;5072150;28;20103;-79
2022/12/01 06:12:06;;;;;;;5.03;2.63;;;;;;;;;;5074024;28;20136;-78
2022/12/01 06:14:32;;;;;;;2.92;2.22;;;;;;;;;;5074858;28;20032;-78
2022/12/01 06:16:58;;;;;;;4.15;2.40;;;;;;;;;;5071252;28;20056;-78
2022/12/01 06:19:24;;;;;;;6.75;2.58;;;;;;;;;;5087585;28;20390;-78
2022/12/01 06:21:50;;;;;;;4.00;2.50;;;;;;;;;;5071997;28;20494;-78
2022/12/01 06:24:16;;;;;;;5.93;2.67;;;;;;;;;;5071448;28;20040;-78
2022/12/01 06:26:43;;;;;;;5.15;2.33;;;;;;;;;;5063157;28;20052;-79
2022/12/01 06:29:09;;;;;;;7.95;2.92;;;;;;;;;;5081829;28;20024;-78
2022/12/01 06:31:35;;;;;;;6.43;2.67;;;;;;;;;;5073627;28;20031;-77
2022/12/01 06:34:02;;;;;;;6.05;2.70;;;;;;;;;;5071281;28;20024;-79
2022/12/01 06:36:28;;;;;;;5.55;2.60;;;;;;;;;;5070019;28;20058;-77
2022/12/01 06:38:54;;;;;;;7.28;2.97;;;;;;;;;;5074002;28;20030;-79
2022/12/01 06:41:20;;;;;;;3.90;2.63;;;;;;;;;;5065928;28;20104;-79
2022/12/01 06:43:46;;;;;;;8.25;3.65;;;;;;;;;;5062748;28;20032;-78
2022/12/01 06:46:12;;;;;;;6.93;3.13;;;;;;;;;;5068586;28;20025;-80
2022/12/01 06:48:38;;;;;;;4.88;2.95;;;;;;;;;;5068830;28;20020;-79
2022/12/01 06:51:04;;;;;;;4.90;2.88;;;;;;;;;;5062551;28;20470;-78
2022/12/01 06:53:30;;;;;;;6.18;2.85;;;;;;;;;;5069594;28;20028;-78
2022/12/01 06:56:00;;;;;;;5.18;2.75;;;;;;;;;;5061341;28;20086;-79
2022/12/01 06:58:26;;;;;;;5.82;2.85;;;;;;;;;;5070020;28;20028;-78
2022/12/01 07:00:53;;;;;;;5.70;3.30;;;;;;;;;;5065901;28;20087;-79
2022/12/01 07:03:19;;;;;;;5.38;2.60;;;;;;;;;;5064940;28;20478;-79
2022/12/01 07:05:53;;;;;;;3.38;2.60;;;;;;;;;;5068050;28;20060;-78
2022/12/01 07:08:19;;;;;;;4.22;2.85;;;;;;;;;;5069442;28;20016;-78
2022/12/01 07:10:46;;;;;;;5.82;3.53;;;;;;;;;;5071471;28;20051;-78
2022/12/01 07:13:12;;;;;;;3.75;2.53;;;;;;;;;;5067450;28;20078;-79
2022/12/01 07:15:38;;;;;;;6.50;2.72;;;;;;;;;;5061425;28;20441;-78
2022/12/01 07:18:04;;;;;;;4.68;2.40;;;;;;;;;;5065391;28;20056;-78
2022/12/01 07:20:30;;;;;;;10.00;2.95;;;;;;;;;;5071321;28;20382;-78
2022/12/01 07:22:56;;;;;;;4.63;2.92;;;;;;;;;;5064869;28;20099;-78
2022/12/01 07:25:22;;;;;;;6.25;2.90;;;;;;;;;;5065070;28;20066;-79
2022/12/01 07:27:48;;;;;;;4.05;2.92;;;;;;;;;;5070357;28;20031;-78
2022/12/01 07:30:14;;;;;;;6.43;2.47;;;;;;;;;;5064511;28;20040;-79
2022/12/01 07:32:42;;;;;;;3.58;3.05;;;;;;;;;;5072286;28;20036;-78
2022/12/01 07:35:09;;;;;;;4.72;3.08;;;;;;;;;;5071069;28;20024;-78
2022/12/01 07:37:35;;;;;;;6.60;3.00;;;;;;;;;;5064778;28;20043;-80
2022/12/01 07:40:01;;;;;;;8.20;3.35;;;;;;;;;;5070316;28;20024;-78
2022/12/01 07:42:27;;;;;;;7.30;2.92;;;;;;;;;;5067302;28;20052;-80
2022/12/01 07:44:53;;;;;;;6.53;2.83;;;;;;;;;;5068043;28;20035;-78
2022/12/01 07:47:19;;;;;;;6.43;3.30;;;;;;;;;;5067562;28;20454;-78
2022/12/01 07:49:45;;;;;;;6.93;2.75;;;;;;;;;;5066074;28;20033;-79
2022/12/01 07:52:11;;;;;;;7.60;3.03;;;;;;;;;;5066406;28;20025;-78
2022/12/01 07:54:37;;;;;;;5.00;3.13;;;;;;;;;;5067184;28;20021;-78
2022/12/01 07:57:03;;;;;;;6.22;3.03;;;;;;;;;;5069510;28;20033;-79
2022/12/01 07:59:29;;;;;;;5.10;3.05;;;;;;;;;;5062565;28;20106;-79
2022/12/01 08:01:55;;;;;;;4.90;2.80;;;;;;;;;;5066028;28;20116;-77
2022/12/01 08:04:21;;;;;;;5.50;2.92;;;;;;;;;;5067399;28;20020;-79
2022/12/01 08:06:47;;;;;;;5.40;3.65;;;;;;;;;;5055004;28;20032;-79
2022/12/01 08:09:13;;;;;;;7.68;3.72;;;;;;;;;;5057656;28;20012;-80
2022/12/01 08:11:40;;;;;;;5.10;2.75;;;;;;;;;;5062912;28;20055;-78
2022/12/01 08:14:06;;;;;;;5.13;3.08;;;;;;;;;;5070928;28;20099;-78
2022/12/01 08:16:32;;;;;;;5.13;3.10;;;;;;;;;;5072631;28;20085;-79
2022/12/01 08:18:58;;;;;;;7.13;3.22;;;;;;;;;;5071354;28;20025;-79
2022/12/01 08:21:24;;;;;;;5.90;3.25;;;;;;;;;;5069574;28;20020;-78
2022/12/01 08:23:57;;;;;;;6.45;3.58;;;;;;;;;;5068051;28;20301;-77
2022/12/01 08:26:24;;;;;;;7.03;2.90;;;;;;;;;;5063394;28;20103;-79
2022/12/01 08:28:50;;;;;;;4.07;2.70;;;;;;;;;;5050272;28;20151;-79
2022/12/01 08:31:27;;;;;;;5.95;2.88;;;;;;;;;;5065534;28;20023;-79
2022/12/01 08:33:54;;;;;;;8.05;3.40;;;;;;;;;;5066645;28;20148;-79
2022/12/01 08:36:21;;;;;;;6.32;3.45;;;;;;;;;;5070326;28;20036;-78
2022/12/01 08:38:48;;;;;;;6.80;3.40;;;;;;;;;;5067212;28;20335;-80
2022/12/01 08:41:14;;;;;;;4.28;2.97;;;;;;;;;;5068138;28;20559;-82
2022/12/01 08:43:43;;;;;;;5.45;2.97;;;;;;;;;;5050507;28;20039;-79
2022/12/01 08:46:09;;;;;;;5.90;3.83;;;;;;;;;;5064217;28;20021;-80
2022/12/01 08:48:35;;;;;;;5.20;2.55;;;;;;;;;;5069686;28;20032;-79
2022/12/01 08:51:22;;;;;;;5.43;3.20;;;;;;;;;;5069141;28;20036;-79
2022/12/01 08:53:49;;;;;;;10.77;3.15;;;;;;;;;;5070297;28;20024;-79
2022/12/01 08:56:35;;;;;;;4.70;2.80;;;;;;;;;;5054442;28;20339;-80
2022/12/01 08:59:01;;;;;;;7.13;3.30;;;;;;;;;;5068150;28;20034;-79
2022/12/01 09:01:27;;;;;;;5.88;3.53;;;;;;;;;;5068591;28;20035;-78
2022/12/01 09:04:07;;;;;;;5.20;2.97;;;;;;;;;;5070145;28;20035;-79
2022/12/01 09:06:45;;;;;;;5.35;3.53;;;;;;;;;;5070121;28;20371;-79
2022/12/01 09:09:12;;;;;;;6.38;2.70;;;;;;;;;;5071557;28;20029;-79
2022/12/01 09:11:39;;;;;;;6.63;2.72;;;;;;;;;;5075526;28;20030;-79
2022/12/01 09:14:05;;;;;;;3.65;2.30;;;;;;;;;;5070236;28;20035;-79
2022/12/01 09:16:31;;;;;;;2.65;2.25;;;;;;;;;;5073279;28;20044;-80
2022/12/01 09:18:57;;;;;;;4.55;2.90;;;;;;;;;;5061771;28;20059;-78
2022/12/01 09:21:25;;;;;;;3.72;2.38;;;;;;;;;;5072601;28;20063;-80
2022/12/01 09:23:52;;;;;;;4.10;2.45;;;;;;;;;;5073415;28;20036;-78
2022/12/01 09:26:18;;;;;;;9.20;2.65;;;;;;;;;;5075410;28;20051;-80
2022/12/01 09:28:48;;;;;;;4.18;2.60;;;;;;;;;;5076992;28;20047;-82
2022/12/01 09:31:15;;;;;;;5.22;2.47;;;;;;;;;;5079299;28;20025;-79
2022/12/01 09:33:42;;;;;;;4.47;2.60;;;;;;;;;;5069256;28;20058;-77
2022/12/01 09:36:10;;;;;;;6.40;2.70;;;;;;;;;;5050130;28;20032;-79
2022/12/01 09:38:37;;;;;;;4.93;2.40;;;;;;;;;;5063522;28;20083;-79
2022/12/01 09:41:22;;;;;;;5.82;2.63;;;;;;;;;;5070328;28;20029;-79
2022/12/01 09:43:53;;;;;;;4.17;2.53;;;;;;;;;;5071989;28;20067;-78
2022/12/01 09:46:21;;;;;;;4.70;2.50;;;;;;;;;;5070266;28;20025;-77
2022/12/01 09:48:49;;;;;;;6.88;2.78;;;;;;;;;;5071011;28;20025;-78
2022/12/01 09:51:20;;;;;;;6.32;3.00;;;;;;;;;;5061439;28;20104;-78
2022/12/01 09:53:49;;;;;;;9.55;3.13;;;;;;;;;;5066733;28;20398;-78
2022/12/01 09:56:20;;;;;;;5.53;2.60;;;;;;;;;;5075383;28;20023;-80
2022/12/01 09:58:50;;;;;;;7.13;3.15;;;;;;;;;;5075393;28;20032;-79
2022/12/01 10:01:20;;;;;;;3.33;2.60;;;;;;;;;;5087873;28;20299;-80
2022/12/01 10:03:48;;;;;;;4.38;3.10;;;;;;;;;;5069792;28;20158;-78
2022/12/01 10:06:23;;;;;;;4.50;2.55;;;;;;;;;;5061969;28;20035;-79
2022/12/01 10:08:57;;;;;;;2.92;2.58;;;;;;;;;;5065404;28;20031;-78
2022/12/01 10:11:39;;;;;;;3.70;2.30;;;;;;;;;;5064270;28;20036;-79
2022/12/01 10:14:09;;;;;;;5.57;2.90;;;;;;;;;;5067259;28;20485;-78
2022/12/01 10:16:40;;;;;;;3.72;2.50;;;;;;;;;;5064364;28;20048;-78
2022/12/01 10:19:28;;;;;;;6.32;2.50;;;;;;;;;;5064184;28;20035;-78
2022/12/01 10:21:57;;;;;;;5.25;2.65;;;;;;;;;;5064819;28;20134;-79
2022/12/01 10:24:23;;;;;;;6.75;2.70;;;;;;;;;;5063890;28;20106;-77
2022/12/01 10:26:53;;;;;;;4.43;2.80;;;;;;;;;;5068421;28;20468;-78
2022/12/01 10:29:22;;;;;;;4.82;2.80;;;;;;;;;;5064572;28;20065;-80
2022/12/01 10:31:52;;;;;;;3.05;2.53;;;;;;;;;;5068393;28;20020;-79
2022/12/01 10:34:28;;;;;;;5.68;2.83;;;;;;;;;;5063543;28;20096;-79
2022/12/01 10:36:54;;;;;;;3.65;2.60;;;;;;;;;;5062940;28;20042;-78
2022/12/01 10:39:31;;;;;;;4.72;3.13;;;;;;;;;;5064279;28;20027;-78
2022/12/01 10:42:00;;;;;;;3.25;2.72;;;;;;;;;;5062322;28;20031;-78
2022/12/01 10:44:28;;;;;;;5.65;2.70;;;;;;;;;;5056626;28;20441;-78
2022/12/01 10:46:55;;;;;;;5.43;2.60;;;;;;;;;;5070258;28;20054;-79
2022/12/01 10:49:33;;;;;;;5.50;2.75;;;;;;;;;;5066443;28;20041;-79
2022/12/01 10:51:59;;;;;;;3.78;2.75;;;;;;;;;;5075284;28;20025;-80
2022/12/01 10:54:36;;;;;;;3.58;2.85;;;;;;;;;;5079123;28;20064;-79
2022/12/01 10:57:03;;;;;;;9.18;3.20;;;;;;;;;;5073559;28;20506;-82
2022/12/01 10:59:35;;;;;;;7.90;2.83;;;;;;;;;;5054588;28;20040;-78
2022/12/01 11:02:02;;;;;;;5.10;3.22;;;;;;;;;;5067065;28;20378;-79
2022/12/01 11:04:34;;;;;;;4.70;3.08;;;;;;;;;;5068513;28;20133;-78
2022/12/01 11:07:00;;;;;;;4.68;2.65;;;;;;;;;;5075178;28;20016;-80
2022/12/01 11:09:28;;;;;;;5.63;3.20;;;;;;;;;;5077220;28;20051;-79
2022/12/01 11:11:58;;;;;;;6.72;3.58;;;;;;;;;;5067361;28;20017;-78
2022/12/01 11:14:33;;;;;;;6.18;3.70;;;;;;;;;;5066315;28;20035;-76
2022/12/01 11:17:15;;;;;;;6.10;3.00;;;;;;;;;;5062835;28;20574;-80
2022/12/01 11:19:41;;;;;;;5.25;3.30;;;;;;;;;;5070080;28;20048;-78
2022/12/01 11:22:27;;;;;;;5.40;3.20;;;;;;;;;;5075186;28;20115;-77
2022/12/01 11:24:53;;;;;;;7.47;3.33;;;;;;;;;;5080967;28;20027;-78
2022/12/01 11:27:48;;;;;;;5.80;3.42;;;;;;;;;;5067360;28;20035;-78
2022/12/01 11:30:24;;;;;;;6.22;4.45;;;;;;;;;;5063577;28;20036;-80
2022/12/01 11:32:52;;;;;;;4.93;3.40;;;;;;;;;;5079753;28;20512;-74
2022/12/01 11:35:20;;;;;;;5.93;3.33;;;;;;;;;;5084590;28;20081;-79
2022/12/01 11:37:48;;;;;;;5.18;3.35;;;;;;;;;;5082854;28;20024;-78
2022/12/01 11:40:34;;;;;;;4.22;3.10;;;;;;;;;;5076169;28;20033;-79
2022/12/01 11:43:02;;;;;;;7.28;3.80;;;;;;;;;;5075220;28;20064;-79
2022/12/01 11:45:38;;;;;;;7.60;3.70;;;;;;;;;;5069595;28;20051;-78
2022/12/01 11:48:04;;;;;;;5.32;3.80;;;;;;;;;;5066863;28;20028;-77
2022/12/01 11:50:31;;;;;;;5.65;3.58;;;;;;;;;;5066386;28;20739;-80
2022/12/01 11:52:58;;;;;;;6.57;3.75;;;;;;;;;;5071446;28;20028;-79
2022/12/01 11:55:25;;;;;;;9.00;4.72;;;;;;;;;;5067209;28;20058;-78
2022/12/01 11:57:52;;;;;;;11.15;4.75;;;;;;;;;;5067152;28;20039;-79
2022/12/01 12:00:20;;;;;;;7.07;3.95;;;;;;;;;;5066963;28;20116;-80
2022/12/01 12:03:01;;;;;;;6.25;3.80;;;;;;;;;;5071767;28;20043;-79
2022/12/01 12:05:39;;;;;;;5.50;3.50;;;;;;;;;;5064906;28;20371;-78
2022/12/01 12:08:20;;;;;;;4.32;3.60;;;;;;;;;;5066706;28;20024;-78
2022/12/01 12:10:49;;;;;;;6.80;3.97;;;;;;;;;;5065954;28;20071;-79
2022/12/01 12:13:15;;;;;;;4.60;3.63;;;;;;;;;;5050989;28;20042;-79
2022/12/01 12:15:44;;;;;;;7.90;3.85;;;;;;;;;;5065764;28;20036;-79
2022/12/01 12:18:31;;;;;;;8.80;4.03;;;;;;;;;;5067596;28;20042;-79
2022/12/01 12:21:05;;;;;;;6.20;3.58;;;;;;;;;;5070878;28;20020;-80
2022/12/01 12:23:40;;;;;;;5.70;3.90;;;;;;;;;;5082377;28;20548;-80
2022/12/01 12:26:06;;;;;;;6.30;3.42;;;;;;;;;;5079861;28;20016;-80
2022/12/01 12:28:44;;;;;;;7.35;4.22;;;;;;;;;;5080654;28;20025;-79
2022/12/01 12:31:22;;;;;;;9.88;4.82;;;;;;;;;;5084194;28;20409;-82
2022/12/01 12:33:49;;;;;;;6.70;3.95;;;;;;;;;;5079147;28;20028;-81
2022/12/01 12:36:27;;;;;;;11.48;4.28;;;;;;;;;;5075471;28;20031;-79
2022/12/01 12:39:02;;;;;;;6.70;4.20;;;;;;;;;;5076529;28;20028;-79
2022/12/01 12:41:36;;;;;;;8.10;3.75;;;;;;;;;;5078828;28;20028;-80
2022/12/01 12:44:05;;;;;;;6.10;3.80;;;;;;;;;;5076330;28;20036;-79
2022/12/01 12:46:37;;;;;;;4.38;3.92;;;;;;;;;;5073732;28;20036;-82
2022/12/01 12:49:16;;;;;;;5.55;4.10;;;;;;;;;;5075554;28;20028;-81
2022/12/01 12:51:46;;;;;;;9.40;4.03;;;;;;;;;;5076674;28;20097;-80
2022/12/01 12:54:12;;;;;;;7.20;4.03;;;;;;;;;;5071470;28;20032;-79
2022/12/01 12:56:40;;;;;;;7.38;4.38;;;;;;;;;;5074281;28;20052;-78
2022/12/01 12:59:13;;;;;;;5.15;3.90;;;;;;;;;;5074656;28;20029;-80
2022/12/01 13:01:42;;;;;;;8.77;4.68;;;;;;;;;;5074855;28;20422;-79
2022/12/01 13:04:21;;;;;;;8.80;4.32;;;;;;;;;;5075321;28;20036;-80
2022/12/01 13:06:54;;;;;;;9.55;4.97;;;;;;;;;;5078075;28;20025;-81
2022/12/01 13:09:28;;;;;;;5.70;4.30;;;;;;;;;;5075198;28;20046;-80
2022/12/01 13:12:08;;;;;;;7.13;3.85;;;;;;;;;;5072624;28;20582;-78
2022/12/01 13:14:53;;;;;;;5.05;3.22;;;;;;;;;;5073383;28;20086;-79
2022/12/01 13:17:22;;;;;;;7.22;3.72;;;;;;;;;;5073168;28;20045;-78
2022/12/01 13:19:48;;;;;;;4.07;3.40;;;;;;;;;;5078703;28;20024;-76
2022/12/01 13:22:16;;;;;;;7.18;3.40;;;;;;;;;;5076612;28;20047;-78
2022/12/01 13:24:43;;;;;;;5.82;3.38;;;;;;;;;;5078033;28;20042;-80
2022/12/01 13:27:09;;;;;;;5.35;3.42;;;;;;;;;;5080339;28;20025;-79
2022/12/01 13:29:36;;;;;;;6.53;3.10;;;;;;;;;;5091641;28;20029;-79
2022/12/01 13:32:03;;;;;;;7.30;3.90;;;;;;;;;;5075518;28;20043;-79
2022/12/01 13:34:37;;;;;;;6.32;3.20;;;;;;;;;;5073283;28;20035;-78
2022/12/01 13:37:03;;;;;;;6.13;3.50;;;;;;;;;;5059720;28;20020;-78
2022/12/01 13:39:36;;;;;;;4.03;2.95;;;;;;;;;;5076901;28;20049;-81
2022/12/01 13:42:05;;;;;;;7.00;3.97;;;;;;;;;;5070352;28;20032;-78
2022/12/01 13:44:44;;;;;;;5.18;3.60;;;;;;;;;;5073935;28;20107;-77
2022/12/01 13:47:10;;;;;;;5.22;3.55;;;;;;;;;;5077640;28;20055;-78
2022/12/01 13:49:47;;;;;;;4.40;3.40;;;;;;;;;;5076017;28;20370;-78
2022/12/01 13:52:22;;;;;;;6.80;3.88;;;;;;;;;;5058182;28;20029;-79
2022/12/01 13:55:14;;;;;;;5.40;4.05;;;;;;;;;;5082689;28;20029;-80
2022/12/01 13:58:13;;;;;;;8.75;4.28;;;;;;;;;;5070090;28;20096;-78
2022/12/01 14:00:40;;;;;;;7.03;3.85;;;;;;;;;;5076363;28;20471;-80
2022/12/01 14:03:12;;;;;;;6.55;3.30;;;;;;;;;;5076282;28;20063;-79
2022/12/01 14:05:41;;;;;;;7.82;3.65;;;;;;;;;;5077270;28;20036;-79
2022/12/01 14:08:22;;;;;;;8.98;4.75;;;;;;;;;;5075570;28;20017;-81
2022/12/01 14:11:12;;;;;;;6.60;3.95;;;;;;;;;;5072297;28;20096;-77
2022/12/01 14:13:50;;;;;;;8.43;4.22;;;;;;;;;;5069184;28;20051;-79
2022/12/01 14:16:16;;;;;;;8.40;4.60;;;;;;;;;;5071836;28;20036;-77
2022/12/01 14:18:48;;;;;;;5.85;4.10;;;;;;;;;;5073156;28;20493;-78
2022/12/01 14:21:14;;;;;;;8.73;4.03;;;;;;;;;;5069256;28;20032;-77
2022/12/01 14:23:59;;;;;;;6.85;3.47;;;;;;;;;;5070843;28;20032;-79
2022/12/01 14:26:27;;;;;;;6.68;3.80;;;;;;;;;;5059609;28;20478;-78
2022/12/01 14:28:59;;;;;;;9.20;3.60;;;;;;;;;;5055110;28;20025;-78
2022/12/01 14:31:32;;;;;;;9.48;5.00;;;;;;;;;;5085913;28;20024;-79
2022/12/01 14:33:58;;;;;;;7.15;5.07;;;;;;;;;;5078539;28;20027;-78
2022/12/01 14:36:24;;;;;;;8.82;4.72;;;;;;;;;;5087120;28;20032;-78
2022/12/01 14:39:01;;;;;;;8.82;4.13;;;;;;;;;;5083970;28;20094;-78
2022/12/01 14:41:28;;;;;;;6.35;4.07;;;;;;;;;;5079339;28;20028;-78
2022/12/01 14:44:04;;;;;;;6.70;4.60;;;;;;;;;;5074748;28;20041;-82
2022/12/01 14:46:53;;;;;;;8.25;5.28;;;;;;;;;;5070438;28;21104;-81
2022/12/01 14:49:28;;;;;;;6.03;3.95;;;;;;;;;;5045363;28;20040;-79
2022/12/01 14:51:58;;;;;;;7.28;3.72;;;;;;;;;;5073437;28;20032;-77
2022/12/01 14:54:29;;;;;;;4.82;3.65;;;;;;;;;;5077364;28;20051;-78
2022/12/01 14:56:58;;;;;;;5.90;3.80;;;;;;;;;;5077517;28;20047;-78
2022/12/01 14:59:26;;;;;;;8.52;3.90;;;;;;;;;;5076094;28;20063;-80
2022/12/01 15:01:55;;;;;;;7.65;3.88;;;;;;;;;;5080149;28;20032;-77
2022/12/01 15:04:21;;;;;;;5.65;3.22;;;;;;;;;;5081317;28;20052;-81